Time;durP1;ratioP1;P1;durP2;ratioP2;P2;SDS_P1;SDS_P2;PMS_P1;PMS_P2;Temp;Humidity;BMP_temperature;BMP_pressure;BME280_temperature;BME280_humidity;BME280_pressure;Samples;Min_cycle;Max_cycle;Signal;HPM_P1;HPM_P2
2022/08/04 00:00:09;;;;;;;13.25;5.65;;;22.30;99.90;;;;;;5029685;28;20064;-74
2022/08/04 00:02:41;;;;;;;10.60;5.85;;;22.30;99.90;;;;;;5029417;28;20052;-74
2022/08/04 00:05:27;;;;;;;12.18;6.10;;;22.30;99.90;;;;;;5028711;28;20029;-74
2022/08/04 00:08:02;;;;;;;10.02;6.05;;;22.40;99.90;;;;;;5029656;28;20038;-72
2022/08/04 00:10:28;;;;;;;11.38;5.28;;;22.30;99.90;;;;;;5028807;28;20037;-75
2022/08/04 00:12:57;;;;;;;8.50;4.85;;;22.30;99.90;;;;;;5028948;28;20064;-68
2022/08/04 00:15:24;;;;;;;7.60;4.60;;;22.30;99.90;;;;;;5027030;28;20635;-74
2022/08/04 00:18:08;;;;;;;8.23;4.85;;;22.20;99.90;;;;;;5030716;28;20483;-72
2022/08/04 00:20:39;;;;;;;7.38;5.15;;;22.10;99.90;;;;;;5028535;28;20038;-75
2022/08/04 00:23:06;;;;;;;9.48;5.90;;;22.10;99.90;;;;;;5028160;28;20056;-68
2022/08/04 00:25:33;;;;;;;10.70;6.20;;;22.10;99.90;;;;;;5013607;28;20033;-74
2022/08/04 00:28:01;;;;;;;7.78;5.43;;;22.10;99.90;;;;;;5030442;28;20064;-69
2022/08/04 00:30:27;;;;;;;11.77;5.65;;;22.10;99.90;;;;;;5030005;28;20128;-74
2022/08/04 00:32:54;;;;;;;9.13;4.90;;;22.00;99.90;;;;;;5026829;28;20121;-74
2022/08/04 00:35:20;;;;;;;10.00;5.40;;;22.00;99.90;;;;;;5013223;28;20547;-74
2022/08/04 00:37:46;;;;;;;11.57;5.35;;;21.80;99.90;;;;;;5013289;28;20105;-73
2022/08/04 00:40:20;;;;;;;8.52;5.03;;;22.00;99.90;;;;;;5013122;28;20030;-75
2022/08/04 00:43:18;;;;;;;15.50;5.82;;;21.90;99.90;;;;;;5006901;28;20056;-73
2022/08/04 00:46:04;;;;;;;10.65;6.20;;;21.90;99.90;;;;;;5018407;28;20042;-66
2022/08/04 00:48:56;;;;;;;8.68;5.13;;;21.90;99.90;;;;;;5013431;28;20034;-73
2022/08/04 00:51:39;;;;;;;9.30;4.88;;;21.90;99.90;;;;;;5000840;28;20042;-71
2022/08/04 00:54:11;;;;;;;9.52;5.45;;;21.90;99.90;;;;;;5004432;28;20113;-71
2022/08/04 00:56:54;;;;;;;12.38;6.10;;;21.90;99.90;;;;;;5013405;28;20041;-74
2022/08/04 00:59:48;;;;;;;16.60;6.40;;;21.80;99.90;;;;;;5003026;28;20058;-73
2022/08/04 01:02:43;;;;;;;10.82;5.72;;;21.80;99.90;;;;;;5008367;28;20030;-73
2022/08/04 01:05:38;;;;;;;10.60;6.13;;;21.70;99.90;;;;;;5011430;28;20022;-73
2022/08/04 01:08:46;;;;;;;11.15;5.75;;;21.70;99.90;;;;;;5007828;28;20036;-72
2022/08/04 01:11:52;;;;;;;9.98;6.53;;;21.60;99.90;;;;;;5029920;28;20653;-75
2022/08/04 01:14:43;;;;;;;13.25;6.13;;;21.60;99.90;;;;;;4973233;28;20489;-74
2022/08/04 01:17:14;;;;;;;8.10;5.63;;;21.60;99.90;;;;;;4978662;28;20035;-74
2022/08/04 01:20:06;;;;;;;8.98;5.57;;;21.60;99.90;;;;;;4978444;28;20382;-70
2022/08/04 01:22:32;;;;;;;12.43;5.45;;;21.60;99.90;;;;;;4971453;28;20137;-73
2022/08/04 01:25:16;;;;;;;11.93;6.22;;;21.60;99.90;;;;;;4971357;28;20433;-74
2022/08/04 01:28:04;;;;;;;12.35;6.13;;;21.60;99.90;;;;;;4971304;28;20042;-74
2022/08/04 01:30:32;;;;;;;10.15;6.32;;;21.60;99.90;;;;;;4975246;28;20061;-72
2022/08/04 01:33:10;;;;;;;10.30;6.15;;;21.60;99.90;;;;;;4982697;28;20030;-72
2022/08/04 01:35:56;;;;;;;9.15;5.82;;;21.50;99.90;;;;;;4982102;28;20104;-73
2022/08/04 01:38:29;;;;;;;10.50;6.78;;;21.50;99.90;;;;;;4970406;28;20489;-75
2022/08/04 01:40:59;;;;;;;12.43;6.13;;;21.50;99.90;;;;;;4971231;28;20042;-75
2022/08/04 01:43:28;;;;;;;10.02;6.10;;;21.40;99.90;;;;;;4977638;28;20049;-72
2022/08/04 01:45:58;;;;;;;8.93;6.15;;;21.40;99.90;;;;;;5009591;28;20046;-74
2022/08/04 01:48:25;;;;;;;12.20;5.88;;;21.40;99.90;;;;;;5016729;28;20054;-71
2022/08/04 01:51:06;;;;;;;11.45;6.43;;;21.40;99.90;;;;;;5001017;28;20109;-68
2022/08/04 01:53:37;;;;;;;11.00;5.60;;;21.40;99.90;;;;;;5010109;28;20109;-68
2022/08/04 01:56:05;;;;;;;12.30;6.23;;;21.40;99.90;;;;;;5012388;28;20113;-73
2022/08/04 01:58:33;;;;;;;15.10;6.93;;;21.40;99.90;;;;;;5008061;28;20049;-73
2022/08/04 02:01:03;;;;;;;9.75;6.05;;;21.40;99.90;;;;;;5009540;28;20030;-73
2022/08/04 02:03:30;;;;;;;18.55;7.22;;;21.30;99.90;;;;;;5007380;28;20061;-74
2022/08/04 02:06:09;;;;;;;9.18;6.05;;;21.30;99.90;;;;;;4996557;28;20030;-73
2022/08/04 02:08:52;;;;;;;11.27;6.88;;;21.30;99.90;;;;;;5007525;28;20030;-74
2022/08/04 02:11:21;;;;;;;11.60;5.78;;;21.30;99.90;;;;;;5007001;28;20050;-74
2022/08/04 02:14:39;;;;;;;11.45;5.95;;;21.30;99.90;;;;;;5011710;28;20050;-73
2022/08/04 02:16:59;;;;;;;11.40;6.22;;;21.30;99.90;;;;;;5009272;28;20061;-74
2022/08/04 02:20:00;;;;;;;19.40;6.95;;;21.20;99.90;;;;;;5003072;28;20084;-72
2022/08/04 02:22:27;;;;;;;12.50;6.18;;;21.20;99.90;;;;;;5035214;28;20025;-74
2022/08/04 02:25:09;;;;;;;11.95;6.32;;;21.10;99.90;;;;;;5047414;28;20044;-73
2022/08/04 02:27:50;;;;;;;9.55;6.18;;;21.00;99.90;;;;;;5049536;28;20033;-75
2022/08/04 02:30:18;;;;;;;7.43;5.53;;;21.00;99.90;;;;;;5045109;28;20577;-75
2022/08/04 02:32:45;;;;;;;8.88;5.53;;;21.00;99.90;;;;;;5049349;28;20475;-75
2022/08/04 02:35:18;;;;;;;9.35;6.40;;;20.90;99.90;;;;;;5042622;28;20447;-75
2022/08/04 02:37:52;;;;;;;12.55;6.35;;;21.00;99.90;;;;;;5048546;28;20236;-72
2022/08/04 02:40:20;;;;;;;9.55;6.25;;;20.90;99.90;;;;;;5049102;28;20033;-73
2022/08/04 02:42:49;;;;;;;10.13;6.25;;;20.90;99.90;;;;;;5048789;28;20040;-74
2022/08/04 02:45:18;;;;;;;16.10;6.50;;;20.90;99.90;;;;;;5039239;28;20176;-74
2022/08/04 02:47:46;;;;;;;11.07;6.18;;;20.90;99.90;;;;;;5046306;28;20033;-74
2022/08/04 02:50:13;;;;;;;11.45;6.55;;;20.80;99.90;;;;;;5040249;28;20049;-73
2022/08/04 02:52:42;;;;;;;15.15;6.05;;;20.80;99.90;;;;;;5045255;28;20044;-75
2022/08/04 02:55:10;;;;;;;11.73;6.22;;;20.80;99.90;;;;;;5046723;28;20069;-74
2022/08/04 02:57:38;;;;;;;10.32;5.70;;;20.70;99.90;;;;;;5007105;28;20481;-75
2022/08/04 03:00:10;;;;;;;17.23;6.80;;;20.70;99.90;;;;;;5011704;28;20038;-74
2022/08/04 03:03:01;;;;;;;13.63;6.45;;;20.70;99.90;;;;;;5011010;28;20025;-75
2022/08/04 03:05:43;;;;;;;11.70;6.18;;;20.70;99.90;;;;;;5008059;28;20029;-70
2022/08/04 03:08:17;;;;;;;9.63;5.93;;;20.60;99.90;;;;;;5014347;28;20451;-75
2022/08/04 03:11:04;;;;;;;12.25;6.55;;;20.60;99.90;;;;;;5015045;28;20038;-75
2022/08/04 03:14:05;;;;;;;13.00;6.45;;;20.60;99.90;;;;;;5015367;28;20038;-73
2022/08/04 03:16:58;;;;;;;12.35;6.72;;;20.60;99.90;;;;;;5031417;28;20128;-75
2022/08/04 03:19:56;;;;;;;13.73;6.57;;;20.60;99.90;;;;;;5029075;28;20041;-74
2022/08/04 03:23:03;;;;;;;10.70;6.43;;;20.60;99.90;;;;;;5012975;28;20038;-63
2022/08/04 03:25:50;;;;;;;12.43;6.57;;;20.60;99.90;;;;;;5011188;28;20042;-75
2022/08/04 03:28:43;;;;;;;10.48;6.05;;;20.60;99.90;;;;;;5013121;28;20046;-75
2022/08/04 03:31:09;;;;;;;11.90;6.22;;;20.60;99.90;;;;;;5001169;28;20045;-75
2022/08/04 03:33:46;;;;;;;11.95;5.80;;;20.60;99.90;;;;;;5012681;28;20030;-75
2022/08/04 03:36:56;;;;;;;11.23;6.28;;;20.60;99.90;;;;;;5012708;28;20034;-75
2022/08/04 03:39:51;;;;;;;13.45;6.63;;;20.60;99.90;;;;;;4992793;28;20145;-73
2022/08/04 03:42:43;;;;;;;10.63;6.22;;;20.60;99.90;;;;;;5012045;28;20025;-73
2022/08/04 03:45:42;;;;;;;12.07;7.03;;;20.80;99.90;;;;;;5012709;28;20594;-75
2022/08/04 03:48:41;;;;;;;14.30;6.78;;;21.00;99.90;;;;;;5008617;28;20106;-72
2022/08/04 03:54:32;;;;;;;14.63;7.25;;;21.70;99.90;;;;;;4968327;28;20390;-75
2022/08/04 03:57:10;;;;;;;16.40;6.82;;;22.00;99.90;;;;;;4973776;28;20042;-74
2022/08/04 03:59:45;;;;;;;14.43;7.00;;;22.20;99.90;;;;;;4997059;28;20049;-73
2022/08/04 04:02:39;;;;;;;13.93;6.78;;;22.50;99.90;;;;;;5014793;28;20037;-74
2022/08/04 04:05:16;;;;;;;14.52;6.90;;;23.10;99.90;;;;;;5002759;28;20022;-75
2022/08/04 04:08:19;;;;;;;13.82;6.80;;;23.70;98.60;;;;;;5018483;28;20026;-73
2022/08/04 04:11:03;;;;;;;;;;;24.10;97.50;;;;;;5014417;28;20472;-74
2022/08/04 04:13:48;;;;;;;13.18;6.38;;;;;;;;;;5013520;28;19918;-64
2022/08/04 04:16:14;;;;;;;9.77;5.70;;;;;;;;;;5009795;28;20420;-75
2022/08/04 04:18:51;;;;;;;13.05;7.05;;;;;;;;;;5013715;28;20025;-73
2022/08/04 04:21:20;;;;;;;11.45;6.78;;;;;;;;;;5015132;28;20033;-76
2022/08/04 04:23:56;;;;;;;9.55;5.40;;;;;;;;;;5015128;28;20072;-73
2022/08/04 04:26:48;;;;;;;8.63;5.40;;;;;;;;;;5014897;28;20054;-75
2022/08/04 04:29:33;;;;;;;10.63;6.25;;;;;;;;;;5014607;28;20073;-74
2022/08/04 04:32:08;;;;;;;10.48;6.30;;;;;;;;;;5013547;28;20026;-76
2022/08/04 04:35:00;;;;;;;9.52;6.22;;;28.50;97.10;;;;;;5017306;28;20076;-75
2022/08/04 04:37:55;;;;;;;9.75;5.63;;;28.80;91.60;;;;;;5014547;28;20034;-77
2022/08/04 04:40:33;;;;;;;14.00;5.43;;;28.80;74.30;;;;;;5012919;28;20434;-69
2022/08/04 04:43:13;;;;;;;8.35;5.45;;;29.10;73.10;;;;;;5021057;28;20037;-76
2022/08/04 04:46:05;;;;;;;12.93;5.38;;;29.10;72.90;;;;;;5011307;28;20112;-73
2022/08/04 04:48:40;;;;;;;9.73;5.22;;;29.60;72.20;;;;;;5003808;28;20164;-77
2022/08/04 04:51:24;;;;;;;13.63;5.32;;;29.50;72.30;;;;;;5021039;28;20034;-77
2022/08/04 04:54:12;;;;;;;10.15;5.60;;;30.40;70.00;;;;;;5015413;28;20499;-76
2022/08/04 04:57:18;;;;;;;8.88;5.78;;;30.50;80.60;;;;;;5022371;28;20032;-77
2022/08/04 04:59:57;;;;;;;12.70;5.22;;;29.80;69.80;;;;;;5045705;28;20128;-75
2022/08/04 05:02:47;;;;;;;7.93;5.40;;;30.40;69.50;;;;;;5045234;28;20036;-77
2022/08/04 05:05:40;;;;;;;9.05;4.45;;;30.40;70.60;;;;;;5040460;28;20029;-65
2022/08/04 05:08:25;;;;;;;7.53;4.22;;;;;;;;;;5038422;28;20033;-74
2022/08/04 05:11:09;;;;;;;8.70;4.75;;;35.80;73.10;;;;;;5043090;28;20119;-63
2022/08/04 05:13:41;;;;;;;8.52;4.82;;;;;;;;;;5051712;28;20063;-74
2022/08/04 05:16:17;;;;;;;10.65;4.35;;;;;;;;;;5040398;28;20033;-73
2022/08/04 05:18:46;;;;;;;7.03;4.22;;;;;;;;;;5050245;28;20043;-77
2022/08/04 05:21:20;;;;;;;9.35;4.65;;;26.40;79.10;;;;;;5044244;28;20114;-74
2022/08/04 05:23:50;;;;;;;5.65;4.15;;;26.00;78.50;;;;;;5041644;28;20625;-64
2022/08/04 05:26:18;;;;;;;7.35;3.92;;;;;;;;;;5049841;28;20033;-74
2022/08/04 05:28:57;;;;;;;8.65;4.30;;;25.90;78.60;;;;;;5050380;28;20029;-72
2022/08/04 05:31:35;;;;;;;6.57;3.78;;;26.00;81.20;;;;;;5018752;28;20054;-74
2022/08/04 05:34:19;;;;;;;7.25;4.13;;;25.80;80.60;;;;;;4999728;28;20149;-74
2022/08/04 05:36:52;;;;;;;13.13;4.53;;;25.60;81.60;;;;;;5009587;28;20535;-76
2022/08/04 05:39:27;;;;;;;7.25;4.10;;;25.70;82.10;;;;;;5008776;28;20125;-73
2022/08/04 05:41:54;;;;;;;6.28;4.38;;;25.50;83.10;;;;;;5032387;28;20026;-71
2022/08/04 05:44:22;;;;;;;17.05;4.72;;;25.50;83.10;;;;;;5007175;28;20050;-72
2022/08/04 05:46:55;;;;;;;10.00;4.15;;;25.70;83.80;;;;;;5012880;28;20030;-74
2022/08/04 05:49:27;;;;;;;7.70;4.22;;;26.00;82.90;;;;;;5012904;28;20030;-75
2022/08/04 05:51:56;;;;;;;4.83;3.60;;;26.10;83.90;;;;;;5013412;28;20045;-75
2022/08/04 05:54:23;;;;;;;7.53;3.80;;;26.00;81.20;;;;;;5012688;28;20317;-75
2022/08/04 05:56:50;;;;;;;8.57;3.65;;;26.10;80.70;;;;;;5012697;28;20034;-74
2022/08/04 05:59:18;;;;;;;6.78;4.03;;;26.20;80.90;;;;;;5013004;28;20543;-74
2022/08/04 06:01:46;;;;;;;6.65;3.97;;;26.30;81.00;;;;;;5013239;28;20029;-74
2022/08/04 06:04:13;;;;;;;6.65;4.30;;;26.70;80.20;;;;;;5012926;28;20025;-75
2022/08/04 06:06:41;;;;;;;7.07;3.55;;;26.70;80.30;;;;;;5013209;28;20030;-75
2022/08/04 06:09:07;;;;;;;12.48;3.90;;;26.70;80.50;;;;;;5012976;28;20095;-74
2022/08/04 06:11:34;;;;;;;7.38;3.75;;;26.90;79.10;;;;;;5010434;28;20357;-76
2022/08/04 06:14:06;;;;;;;15.27;4.80;;;27.20;78.60;;;;;;5012584;28;20460;-73
2022/08/04 06:16:38;;;;;;;9.75;4.07;;;27.20;77.20;;;;;;5012183;28;20042;-76
2022/08/04 06:19:10;;;;;;;8.18;4.30;;;27.20;77.70;;;;;;5012667;28;20120;-73
2022/08/04 06:21:37;;;;;;;;;;;27.30;78.20;;;;;;5012894;28;20099;-74
2022/08/04 06:24:06;;;;;;;10.75;4.13;;;27.30;78.30;;;;;;5012203;28;19905;-74
2022/08/04 06:26:34;;;;;;;6.35;4.30;;;27.20;77.20;;;;;;5012692;28;20072;-75
2022/08/04 06:29:02;;;;;;;8.85;4.18;;;27.60;77.20;;;;;;5012634;28;20487;-72
2022/08/04 06:31:41;;;;;;;7.47;4.30;;;27.90;76.80;;;;;;5012331;28;20030;-75
2022/08/04 06:34:10;;;;;;;6.60;3.97;;;28.10;75.60;;;;;;5012728;28;20121;-75
2022/08/04 06:36:37;;;;;;;6.78;3.90;;;28.20;75.20;;;;;;5011834;28;20104;-75
2022/08/04 06:39:05;;;;;;;5.75;4.07;;;28.40;75.20;;;;;;5013063;28;20030;-67
2022/08/04 06:41:32;;;;;;;11.88;4.60;;;28.40;73.80;;;;;;5015799;28;20101;-76
2022/08/04 06:44:03;;;;;;;12.38;4.10;;;;;;;;;;5016009;28;20038;-75
2022/08/04 06:46:30;;;;;;;12.30;4.20;;;28.70;72.40;;;;;;5016699;28;20037;-73
2022/08/04 06:48:58;;;;;;;11.32;4.22;;;28.70;73.50;;;;;;5016475;28;20049;-75
2022/08/04 06:51:24;;;;;;;10.35;4.00;;;28.60;73.20;;;;;;5016321;28;20050;-74
2022/08/04 06:53:51;;;;;;;5.68;3.80;;;28.70;72.80;;;;;;5014791;28;20018;-72
2022/08/04 06:56:19;;;;;;;9.50;4.40;;;29.10;94.70;;;;;;5015263;28;20034;-74
2022/08/04 06:58:46;;;;;;;7.38;3.90;;;28.80;93.00;;;;;;5015818;28;20026;-75
2022/08/04 07:01:13;;;;;;;11.35;4.88;;;29.00;94.80;;;;;;5016175;28;20451;-74
2022/08/04 07:03:40;;;;;;;11.57;4.55;;;;;;;;;;5015889;28;20026;-74
2022/08/04 07:06:06;;;;;;;7.43;3.67;;;;;;;;;;5015382;28;20033;-69
2022/08/04 07:08:36;;;;;;;8.25;4.40;;;;;;;;;;5013802;28;20093;-73
2022/08/04 07:11:04;;;;;;;6.75;3.78;;;29.50;70.20;;;;;;5013841;28;20045;-71
2022/08/04 07:13:31;;;;;;;5.28;3.90;;;29.40;70.00;;;;;;5013887;28;20056;-75
2022/08/04 07:15:58;;;;;;;7.40;4.00;;;29.30;70.70;;;;;;5008135;28;20564;-72
2022/08/04 07:18:24;;;;;;;8.63;3.97;;;29.60;70.10;;;;;;5015451;28;20025;-74
2022/08/04 07:20:51;;;;;;;8.25;3.97;;;29.20;70.10;;;;;;5011724;28;20480;-73
2022/08/04 07:23:23;;;;;;;9.00;4.05;;;29.60;69.20;;;;;;5015103;28;20017;-74
2022/08/04 07:25:57;;;;;;;9.85;4.07;;;29.30;69.90;;;;;;5015169;28;20034;-74
2022/08/04 07:28:29;;;;;;;8.30;3.92;;;29.50;70.90;;;;;;5015079;28;20030;-76
2022/08/04 07:30:56;;;;;;;6.28;4.40;;;30.10;90.70;;;;;;5015606;28;20033;-74
2022/08/04 07:33:23;;;;;;;7.80;3.92;;;;;;;;;;5015317;28;20022;-77
2022/08/04 07:35:51;;;;;;;9.45;4.28;;;;;;;;;;5015546;28;20029;-74
2022/08/04 07:38:22;;;;;;;10.00;3.88;;;;;;;;;;5015405;28;20100;-73
2022/08/04 07:40:48;;;;;;;5.57;3.67;;;30.90;67.60;;;;;;5012511;28;20029;-75
2022/08/04 07:43:15;;;;;;;9.65;4.68;;;31.30;67.40;;;;;;5011350;28;20032;-71
2022/08/04 07:45:42;;;;;;;8.00;4.18;;;31.20;66.80;;;;;;4994963;28;20022;-75
2022/08/04 07:48:10;;;;;;;10.13;4.43;;;31.00;67.70;;;;;;5009149;28;20057;-75
2022/08/04 07:50:37;;;;;;;10.13;4.72;;;31.50;66.00;;;;;;5014173;28;20080;-73
2022/08/04 07:53:03;;;;;;;8.80;3.95;;;31.40;66.70;;;;;;5014862;28;20022;-73
2022/08/04 07:55:30;;;;;;;14.43;3.85;;;31.40;66.60;;;;;;5015003;28;20022;-73
2022/08/04 07:57:56;;;;;;;6.78;4.18;;;31.40;66.20;;;;;;5012888;28;20057;-72
2022/08/04 08:00:22;;;;;;;5.97;4.25;;;31.40;66.20;;;;;;5012453;28;20062;-73
2022/08/04 08:02:49;;;;;;;4.72;3.92;;;;;;;;;;5011980;28;20052;-73
2022/08/04 08:05:18;;;;;;;10.45;4.10;;;31.60;64.40;;;;;;5002237;28;20065;-74
2022/08/04 08:07:47;;;;;;;8.73;4.43;;;31.80;64.80;;;;;;5013969;28;20115;-76
2022/08/04 08:10:14;;;;;;;10.45;4.03;;;;;;;;;;5013897;28;20069;-73
2022/08/04 08:12:41;;;;;;;7.07;4.03;;;32.40;64.50;;;;;;5012251;28;20033;-72
2022/08/04 08:15:08;;;;;;;4.65;3.47;;;32.50;64.60;;;;;;5001133;28;20033;-77
2022/08/04 08:17:34;;;;;;;7.13;4.13;;;32.30;63.80;;;;;;5013974;28;20041;-74
2022/08/04 08:20:00;;;;;;;6.68;3.22;;;32.20;64.30;;;;;;5013660;28;20014;-72
2022/08/04 08:22:27;;;;;;;6.85;3.78;;;32.00;66.20;;;;;;5010418;28;20501;-74
2022/08/04 08:24:53;;;;;;;5.03;3.53;;;32.00;63.50;;;;;;5003792;28;20029;-74
2022/08/04 08:27:20;;;;;;;6.93;3.80;;;32.00;62.80;;;;;;5014138;28;20026;-74
2022/08/04 08:29:46;;;;;;;7.28;3.63;;;32.00;62.80;;;;;;5013910;28;20132;-73
2022/08/04 08:32:13;;;;;;;8.68;4.13;;;32.30;62.00;;;;;;5013575;28;20483;-74
2022/08/04 08:34:40;;;;;;;4.97;3.25;;;32.20;61.70;;;;;;5013843;28;20033;-73
2022/08/04 08:37:24;;;;;;;4.93;3.65;;;32.30;62.40;;;;;;5014073;28;20112;-74
2022/08/04 08:40:01;;;;;;;9.07;3.50;;;32.70;62.10;;;;;;5000879;28;20029;-75
2022/08/04 08:42:42;;;;;;;6.22;3.47;;;32.80;60.70;;;;;;5013502;28;20022;-73
2022/08/04 08:45:20;;;;;;;5.05;3.50;;;32.70;61.60;;;;;;5013787;28;20396;-73
2022/08/04 08:47:50;;;;;;;6.85;3.67;;;;;;;;;;5013269;28;20018;-73
2022/08/04 08:50:19;;;;;;;7.90;4.15;;;;;;;;;;5013248;28;20056;-74
2022/08/04 08:53:23;;;;;;;10.07;3.72;;;32.80;58.80;;;;;;5013660;28;20038;-72
2022/08/04 08:56:09;;;;;;;6.70;3.97;;;32.80;60.80;;;;;;5013797;28;20078;-75
2022/08/04 08:59:03;;;;;;;11.45;3.42;;;32.80;62.50;;;;;;5000906;28;20714;-72
2022/08/04 09:01:48;;;;;;;5.65;3.60;;;;;;;;;;5012843;28;20136;-75
2022/08/04 09:04:26;;;;;;;4.38;3.28;;;33.20;84.00;;;;;;5013428;28;20034;-74
2022/08/04 09:07:11;;;;;;;5.57;3.08;;;;;;;;;;5013275;28;20021;-74
2022/08/04 09:09:40;;;;;;;9.63;3.35;;;;;;;;;;5013216;28;20494;-71
2022/08/04 09:12:12;;;;;;;4.05;3.17;;;;;;;;;;5011891;28;20030;-74
2022/08/04 09:14:52;;;;;;;5.60;3.50;;;;;;;;;;5013039;28;20025;-73
2022/08/04 09:17:21;;;;;;;5.55;2.97;;;;;;;;;;5012886;28;20484;-74
2022/08/04 09:20:08;;;;;;;5.50;3.28;;;;;;;;;;5013027;28;20530;-75
2022/08/04 09:22:34;;;;;;;4.72;2.42;;;;;;;;;;5000621;28;20569;-76
2022/08/04 09:25:10;;;;;;;3.47;2.80;;;;;;;;;;5013360;28;20148;-76
2022/08/04 09:27:45;;;;;;;7.38;2.92;;;32.60;87.40;;;;;;5013427;28;20409;-76
2022/08/04 09:30:15;;;;;;;4.97;2.47;;;32.60;68.60;;;;;;5012909;28;20037;-75
2022/08/04 09:32:49;;;;;;;5.07;2.50;;;33.30;72.10;;;;;;5012924;28;20032;-76
2022/08/04 09:35:34;;;;;;;3.53;2.55;;;;;;;;;;4993278;28;20527;-75
2022/08/04 09:38:13;;;;;;;4.55;2.58;;;;;;;;;;5000409;28;20037;-76
2022/08/04 09:40:47;;;;;;;4.35;2.63;;;;;;;;;;5012742;28;20026;-77
2022/08/04 09:43:36;;;;;;;4.55;2.45;;;34.50;65.30;;;;;;5012503;28;20056;-76
2022/08/04 09:46:17;;;;;;;5.38;2.97;;;34.40;58.10;;;;;;5012750;28;20507;-75
2022/08/04 09:48:57;;;;;;;3.58;2.65;;;34.30;60.00;;;;;;5012588;28;20088;-75
2022/08/04 09:51:35;;;;;;;;;;;34.20;56.60;;;;;;5013146;28;20057;-76
2022/08/04 09:54:48;;;;;;;6.20;2.50;;;34.20;59.00;;;;;;5012010;28;19909;-75
2022/08/04 09:57:45;;;;;;;4.68;2.42;;;34.40;59.40;;;;;;5023076;28;20048;-78
2022/08/04 10:00:15;;;;;;;4.95;3.03;;;33.80;70.60;;;;;;5010371;28;20046;-78
2022/08/04 10:03:01;;;;;;;4.77;2.77;;;34.30;66.80;;;;;;5010308;28;20120;-78
2022/08/04 10:06:04;;;;;;;4.40;2.35;;;34.10;63.10;;;;;;5010447;28;20151;-77
2022/08/04 10:08:54;;;;;;;2.45;2.20;;;34.30;61.90;;;;;;5009995;28;20118;-77
2022/08/04 10:11:44;;;;;;;3.00;2.22;;;34.10;61.60;;;;;;5022872;28;20049;-77
2022/08/04 10:14:23;;;;;;;2.30;2.10;;;34.10;62.60;;;;;;5009765;28;20507;-78
2022/08/04 10:17:10;;;;;;;3.72;2.38;;;34.10;62.80;;;;;;5010707;28;20042;-78
2022/08/04 10:19:39;;;;;;;5.32;2.90;;;34.30;63.10;;;;;;5009897;28;20581;-78
2022/08/04 10:22:19;;;;;;;3.72;2.17;;;34.20;59.00;;;;;;5009972;28;20017;-77
2022/08/04 10:25:04;;;;;;;3.00;2.37;;;34.20;60.00;;;;;;5000286;28;20121;-74
2022/08/04 10:27:45;;;;;;;6.25;2.80;;;34.20;63.00;;;;;;5009444;28;20479;-70
2022/08/04 10:30:15;;;;;;;6.30;2.95;;;34.10;66.20;;;;;;5016260;28;20057;-72
2022/08/04 10:33:04;;;;;;;5.20;2.25;;;34.40;64.80;;;;;;5005710;28;20045;-75
2022/08/04 10:35:37;;;;;;;3.85;2.30;;;34.20;59.30;;;;;;5012101;28;20050;-74
2022/08/04 10:38:15;;;;;;;3.60;2.30;;;34.20;60.20;;;;;;5011806;28;20033;-72
2022/08/04 10:41:02;;;;;;;4.75;2.58;;;33.80;58.60;;;;;;5011888;28;20489;-75
2022/08/04 10:43:34;;;;;;;7.32;2.15;;;;;;;;;;5011839;28;20034;-74
2022/08/04 10:46:17;;;;;;;4.22;1.75;;;;;;;;;;5006736;28;20042;-76
2022/08/04 10:49:05;;;;;;;2.53;1.50;;;33.60;55.40;;;;;;5010839;28;20026;-76
2022/08/04 10:51:44;;;;;;;4.32;1.85;;;33.80;56.70;;;;;;5011967;28;20070;-71
2022/08/04 10:54:31;;;;;;;2.65;1.70;;;34.00;56.10;;;;;;5011796;28;20041;-74
2022/08/04 10:57:11;;;;;;;3.75;2.00;;;34.10;54.80;;;;;;5010861;28;20026;-73
2022/08/04 10:59:59;;;;;;;4.78;2.10;;;34.20;55.30;;;;;;5011977;28;20032;-72
2022/08/04 11:02:29;;;;;;;1.92;1.58;;;34.20;56.40;;;;;;5028777;28;20048;-73
2022/08/04 11:05:34;;;;;;;2.58;1.90;;;34.30;56.50;;;;;;5028827;28;20515;-74
2022/08/04 11:08:10;;;;;;;1.83;1.50;;;34.40;56.30;;;;;;5025692;28;20089;-74
2022/08/04 11:10:46;;;;;;;7.03;1.80;;;;;;;;;;5029863;28;20122;-74
2022/08/04 11:13:16;;;;;;;1.73;1.63;;;34.90;54.40;;;;;;5029717;28;20041;-74
2022/08/04 11:15:51;;;;;;;3.03;1.33;;;34.50;58.60;;;;;;5030533;28;20584;-74
2022/08/04 11:18:26;;;;;;;3.33;1.55;;;34.50;57.00;;;;;;5037270;28;20040;-74
2022/08/04 11:21:14;;;;;;;2.95;1.80;;;34.70;56.50;;;;;;5031926;28;20030;-75
2022/08/04 11:23:47;;;;;;;1.85;1.63;;;34.60;57.50;;;;;;5031854;28;20063;-72
2022/08/04 11:26:23;;;;;;;2.90;1.52;;;34.80;56.80;;;;;;5038417;28;20033;-75
2022/08/04 11:29:06;;;;;;;1.73;1.30;;;34.70;56.40;;;;;;5025048;28;20038;-72
2022/08/04 11:31:38;;;;;;;7.00;0.98;;;34.70;57.70;;;;;;5028372;28;20037;-76
2022/08/04 11:34:10;;;;;;;1.35;1.15;;;34.70;54.30;;;;;;5033187;28;20049;-69
2022/08/04 11:36:48;;;;;;;1.88;1.38;;;34.70;54.90;;;;;;5033365;28;20032;-73
2022/08/04 11:39:32;;;;;;;1.10;1.00;;;34.60;57.10;;;;;;5018649;28;20042;-74
2022/08/04 11:42:25;;;;;;;2.72;0.85;;;34.70;57.70;;;;;;5003342;28;20030;-72
2022/08/04 11:45:10;;;;;;;1.20;1.10;;;34.70;55.00;;;;;;5013387;28;20045;-71
2022/08/04 11:48:00;;;;;;;3.90;1.38;;;34.70;56.40;;;;;;5011550;28;20037;-74
2022/08/04 11:50:29;;;;;;;2.10;1.65;;;35.00;56.40;;;;;;5014253;28;20423;-73
2022/08/04 11:52:57;;;;;;;4.72;1.92;;;34.20;58.00;;;;;;5014852;28;20112;-73
2022/08/04 11:55:26;;;;;;;3.53;1.35;;;33.60;58.10;;;;;;5013262;28;20484;-73
2022/08/04 11:57:52;;;;;;;8.70;1.70;;;33.60;59.70;;;;;;5014894;28;20028;-71
2022/08/04 12:00:18;;;;;;;4.20;2.30;;;33.50;72.90;;;;;;5013880;28;20025;-73
2022/08/04 12:03:14;;;;;;;3.65;1.63;;;33.80;71.30;;;;;;5009041;28;20471;-73
2022/08/04 12:06:05;;;;;;;2.78;1.90;;;33.80;70.30;;;;;;5016703;28;20041;-70
2022/08/04 12:08:50;;;;;;;2.50;1.98;;;;;;;;;;5012018;28;20503;-71
2022/08/04 12:11:53;;;;;;;2.45;2.13;;;33.10;82.60;;;;;;5009910;28;20038;-71
2022/08/04 12:14:54;;;;;;;4.38;1.95;;;33.30;72.90;;;;;;4999413;28;20065;-73
2022/08/04 12:17:37;;;;;;;2.80;2.00;;;33.30;69.70;;;;;;5009312;28;20030;-73
2022/08/04 12:20:06;;;;;;;5.68;2.63;;;33.20;73.20;;;;;;5003406;28;20125;-71
2022/08/04 12:22:35;;;;;;;4.60;2.53;;;;;;;;;;4996200;28;20073;-73
2022/08/04 12:25:07;;;;;;;2.55;2.05;;;32.90;85.90;;;;;;5001563;28;20044;-72
2022/08/04 12:27:55;;;;;;;3.13;1.92;;;;;;;;;;4998861;28;20042;-74
2022/08/04 12:30:22;;;;;;;6.78;2.33;;;33.60;84.40;;;;;;4998526;28;20504;-73
2022/08/04 12:33:02;;;;;;;3.13;2.00;;;34.00;72.50;;;;;;4997527;28;20034;-74
2022/08/04 12:35:38;;;;;;;5.82;2.03;;;34.00;79.30;;;;;;5004224;28;20052;-73
2022/08/04 12:38:13;;;;;;;2.58;1.70;;;34.40;84.20;;;;;;4998173;28;20077;-75
2022/08/04 12:40:50;;;;;;;7.78;2.03;;;;;;;;;;4992684;28;20057;-74
2022/08/04 12:43:28;;;;;;;2.05;1.85;;;34.50;72.30;;;;;;4998118;28;20397;-73
2022/08/04 12:45:59;;;;;;;5.07;1.88;;;34.40;73.40;;;;;;5001605;28;20043;-75
2022/08/04 12:48:27;;;;;;;7.03;1.70;;;34.50;73.70;;;;;;4998944;28;20042;-72
2022/08/04 12:50:55;;;;;;;2.42;2.13;;;34.40;71.50;;;;;;4994728;28;20504;-73
2022/08/04 12:53:36;;;;;;;2.85;2.20;;;34.50;74.70;;;;;;5001754;28;20495;-73
2022/08/04 12:56:03;;;;;;;4.65;2.15;;;34.50;73.90;;;;;;5011650;28;20472;-72
2022/08/04 12:58:36;;;;;;;3.00;1.60;;;34.60;71.00;;;;;;5008167;28;20045;-75
2022/08/04 13:01:06;;;;;;;6.28;1.80;;;34.60;71.30;;;;;;5010366;28;20034;-75
2022/08/04 13:03:57;;;;;;;2.57;1.73;;;34.40;84.40;;;;;;5009139;28;20384;-73
2022/08/04 13:06:33;;;;;;;3.20;1.90;;;34.70;74.50;;;;;;4994180;28;20027;-73
2022/08/04 13:09:14;;;;;;;3.47;1.85;;;34.70;69.90;;;;;;4991790;28;20085;-76
2022/08/04 13:11:52;;;;;;;2.13;1.92;;;34.60;67.30;;;;;;4990066;28;20098;-75
2022/08/04 13:14:20;;;;;;;3.63;1.58;;;34.90;66.20;;;;;;4990541;28;20022;-74
2022/08/04 13:16:46;;;;;;;2.95;1.65;;;34.80;74.70;;;;;;4988397;28;20042;-75
2022/08/04 13:19:13;;;;;;;2.58;1.73;;;34.70;75.60;;;;;;4990816;28;20037;-76
2022/08/04 13:21:44;;;;;;;4.10;1.75;;;34.60;75.90;;;;;;4991076;28;20034;-73
2022/08/04 13:24:13;;;;;;;3.92;2.35;;;34.70;75.70;;;;;;4991090;28;20489;-76
2022/08/04 13:27:07;;;;;;;7.05;2.25;;;34.60;75.20;;;;;;4991107;28;20038;-74
2022/08/04 13:29:40;;;;;;;2.58;1.60;;;34.50;66.80;;;;;;4991513;28;20468;-63
2022/08/04 13:32:06;;;;;;;4.47;1.98;;;34.70;68.30;;;;;;4991911;28;20041;-75
2022/08/04 13:34:34;;;;;;;3.72;2.30;;;34.70;65.70;;;;;;4989705;28;20038;-70
2022/08/04 13:37:01;;;;;;;15.70;3.00;;;34.60;62.90;;;;;;4988113;28;20038;-63
2022/08/04 13:39:28;;;;;;;4.88;2.10;;;34.40;59.80;;;;;;4991091;28;20030;-76
2022/08/04 13:41:57;;;;;;;2.67;1.90;;;34.60;60.20;;;;;;4991337;28;20480;-75
2022/08/04 13:44:27;;;;;;;4.10;2.00;;;34.70;60.70;;;;;;5010016;28;20049;-77
2022/08/04 13:47:04;;;;;;;6.55;2.17;;;34.60;62.20;;;;;;5013042;28;20026;-76
2022/08/04 13:49:30;;;;;;;6.88;2.30;;;34.50;64.60;;;;;;5011148;28;20030;-78